createdAt,value
2018-01-27T00:00:30.971Z,4.74
2018-01-27T00:01:41.199Z,4.78
2018-01-27T00:02:51.386Z,4.74
2018-01-27T00:04:01.606Z,4.67
2018-01-27T00:05:11.817Z,4.73
2018-01-27T00:06:22.052Z,4.68
2018-01-27T00:07:32.256Z,4.74
2018-01-27T00:08:42.451Z,4.65
2018-01-27T00:09:52.741Z,4.71
2018-01-27T00:11:02.666Z,4.67
2018-01-27T00:12:13.762Z,4.63
2018-01-27T00:13:23.932Z,4.59
2018-01-27T00:14:34.140Z,4.68
2018-01-27T00:15:44.318Z,4.56
2018-01-27T00:16:54.489Z,4.68
2018-01-27T00:18:04.735Z,4.67
2018-01-27T00:19:14.873Z,4.67
2018-01-27T00:20:25.027Z,4.56
2018-01-27T00:21:35.177Z,4.55
2018-01-27T00:22:45.319Z,4.52
2018-01-27T00:23:55.192Z,4.55
2018-01-27T00:25:05.315Z,4.55
2018-01-27T00:26:15.441Z,4.52
2018-01-27T00:27:25.615Z,4.55
2018-01-27T00:28:35.790Z,4.47
2018-01-27T00:29:45.675Z,4.47
2018-01-27T00:30:55.803Z,4.37
2018-01-27T00:32:05.972Z,4.49
2018-01-27T00:33:16.166Z,4.38
2018-01-27T00:34:26.374Z,4.52
2018-01-27T00:35:36.630Z,4.46
2018-01-27T00:36:46.938Z,4.41
2018-01-27T00:37:57.098Z,4.47
2018-01-27T00:39:07.275Z,4.5
2018-01-27T00:40:17.471Z,4.38
2018-01-27T00:41:27.713Z,4.4
2018-01-27T00:42:37.872Z,4.46
2018-01-27T00:43:48.043Z,4.46
2018-01-27T00:44:58.164Z,4.46
2018-01-27T00:46:08.070Z,4.57
2018-01-27T00:47:17.948Z,4.55
2018-01-27T00:48:28.083Z,4.53
2018-01-27T00:49:38.270Z,4.5
2018-01-27T00:50:48.554Z,4.52
2018-01-27T00:51:58.793Z,4.67
2018-01-27T00:53:08.641Z,4.7
2018-01-27T00:54:18.511Z,4.6
2018-01-27T00:55:28.669Z,4.57
2018-01-27T00:56:38.858Z,4.7
2018-01-27T00:57:49.002Z,4.65
2018-01-27T00:58:59.169Z,4.67
2018-01-27T01:00:09.301Z,4.62
2018-01-27T01:01:19.496Z,4.59
2018-01-27T01:02:29.946Z,4.67
2018-01-27T01:03:39.846Z,4.63
2018-01-27T01:04:49.977Z,4.62
2018-01-27T01:06:00.162Z,4.65
2018-01-27T01:07:10.303Z,4.62
2018-01-27T01:08:20.431Z,4.62
2018-01-27T01:09:30.640Z,4.6
2018-01-27T01:10:40.823Z,4.52
2018-01-27T01:11:50.974Z,4.55
2018-01-27T01:13:01.162Z,4.52
2018-01-27T01:14:11.345Z,4.52
2018-01-27T01:15:21.739Z,4.55
2018-01-27T01:16:31.901Z,4.52
2018-01-27T01:17:42.172Z,4.52
2018-01-27T01:18:52.316Z,4.53
2018-01-27T01:20:02.509Z,4.55
2018-01-27T01:21:12.705Z,4.49
2018-01-27T01:22:22.903Z,4.55
2018-01-27T01:23:33.039Z,4.52
2018-01-27T01:24:43.187Z,4.46
2018-01-27T01:25:53.360Z,4.5
2018-01-27T01:27:04.463Z,4.5
2018-01-27T01:28:14.694Z,4.46
2018-01-27T01:29:24.909Z,4.4
2018-01-27T01:30:35.087Z,4.37
2018-01-27T01:31:45.385Z,4.43
2018-01-27T01:32:55.527Z,4.41
2018-01-27T01:34:05.731Z,4.4
2018-01-27T01:35:15.932Z,4.38
2018-01-27T01:36:26.175Z,4.38
2018-01-27T01:37:36.335Z,4.46
2018-01-27T01:38:46.528Z,4.33
2018-01-27T01:39:56.817Z,4.41
2018-01-27T01:41:06.705Z,4.4
2018-01-27T01:42:16.871Z,4.46
2018-01-27T01:43:27.030Z,4.4
2018-01-27T01:44:37.150Z,4.37
2018-01-27T01:45:47.534Z,4.46
2018-01-27T01:46:57.683Z,4.41
2018-01-27T01:48:07.873Z,4.41
2018-01-27T01:49:18.121Z,4.41
2018-01-27T01:50:28.351Z,4.46
2018-01-27T01:51:38.499Z,4.41
2018-01-27T01:52:48.665Z,4.38
2018-01-27T01:53:58.554Z,4.43
2018-01-27T01:55:08.688Z,4.41
2018-01-27T01:56:18.866Z,4.41
2018-01-27T01:57:29.026Z,4.4
2018-01-27T01:58:39.198Z,4.5
2018-01-27T01:59:49.319Z,4.55
2018-01-27T02:00:59.445Z,4.53
2018-01-27T02:02:09.565Z,4.52
2018-01-27T02:03:19.764Z,4.56
2018-01-27T02:04:29.976Z,4.57
2018-01-27T02:05:40.127Z,4.7
2018-01-27T02:06:50.246Z,4.71
2018-01-27T02:08:00.427Z,4.78
2018-01-27T02:09:10.564Z,4.75
2018-01-27T02:10:20.751Z,4.65
2018-01-27T02:11:30.620Z,4.71
2018-01-27T02:12:40.745Z,4.73
2018-01-27T02:13:50.899Z,4.62
2018-01-27T02:15:01.038Z,4.71
2018-01-27T02:16:11.151Z,4.77
2018-01-27T02:17:21.312Z,4.71
2018-01-27T02:18:31.443Z,4.63
2018-01-27T02:19:41.605Z,4.75
2018-01-27T02:20:52.812Z,4.65
2018-01-27T02:22:02.952Z,4.73
2018-01-27T02:23:13.194Z,4.67
2018-01-27T02:24:23.395Z,4.68
2018-01-27T02:25:33.662Z,4.73
2018-01-27T02:26:43.858Z,4.74
2018-01-27T02:27:53.743Z,4.75
2018-01-27T02:29:03.878Z,4.67
2018-01-27T02:30:13.995Z,4.65
2018-01-27T02:31:24.169Z,4.62
2018-01-27T02:32:34.360Z,4.74
2018-01-27T02:33:44.504Z,4.78
2018-01-27T02:34:54.766Z,4.73
2018-01-27T02:36:04.936Z,4.68
2018-01-27T02:37:15.132Z,4.67
2018-01-27T02:38:25.257Z,4.75
2018-01-27T02:39:35.147Z,4.77
2018-01-27T02:40:45.519Z,4.78
2018-01-27T02:41:55.755Z,4.6
2018-01-27T02:43:05.941Z,4.7
2018-01-27T02:44:15.801Z,4.62
2018-01-27T02:45:25.910Z,4.73
2018-01-27T02:46:36.041Z,4.8
2018-01-27T02:47:46.275Z,4.71
2018-01-27T02:48:56.507Z,4.77
2018-01-27T02:50:06.726Z,4.77
2018-01-27T02:51:16.592Z,4.78
2018-01-27T02:52:26.749Z,4.77
2018-01-27T02:53:36.950Z,4.77
2018-01-27T02:54:47.208Z,4.77
2018-01-27T02:55:57.424Z,4.81
2018-01-27T02:57:07.641Z,4.78
2018-01-27T02:58:17.864Z,4.81
2018-01-27T02:59:28.073Z,4.74
2018-01-27T03:00:38.228Z,4.77
2018-01-27T03:01:48.406Z,4.77
2018-01-27T03:02:58.518Z,4.75
2018-01-27T03:04:08.972Z,4.8
2018-01-27T03:05:19.135Z,4.77
2018-01-27T03:06:29.391Z,4.75
2018-01-27T03:07:39.610Z,4.78
2018-01-27T03:08:49.779Z,4.77
2018-01-27T03:09:59.986Z,4.71
2018-01-27T03:11:10.146Z,4.74
2018-01-27T03:12:20.413Z,4.75
2018-01-27T03:13:30.762Z,4.88
2018-01-27T03:14:40.906Z,4.86
2018-01-27T03:15:51.158Z,4.81
2018-01-27T03:17:01.457Z,4.85
2018-01-27T03:18:11.693Z,4.92
2018-01-27T03:19:21.857Z,4.9
2018-01-27T03:20:32.044Z,4.92
2018-01-27T03:21:42.179Z,4.98
2018-01-27T03:22:52.441Z,4.92
2018-01-27T03:24:02.350Z,5.04
2018-01-27T03:25:12.507Z,5
2018-01-27T03:26:22.616Z,5.04
2018-01-27T03:27:32.807Z,5.06
2018-01-27T03:28:42.698Z,5.07
2018-01-27T03:29:52.939Z,5.07
2018-01-27T03:31:03.088Z,5.1
2018-01-27T03:32:13.369Z,5.07
2018-01-27T03:33:23.560Z,5.11
2018-01-27T03:34:33.777Z,5.07
2018-01-27T03:35:43.949Z,5.1
2018-01-27T03:36:55.057Z,5.11
2018-01-27T03:38:05.177Z,5.07
2018-01-27T03:39:15.094Z,5.03
2018-01-27T03:40:25.214Z,5.06
2018-01-27T03:41:35.310Z,5.04
2018-01-27T03:42:45.411Z,5
2018-01-27T03:43:55.650Z,5.08
2018-01-27T03:45:05.791Z,5.04
2018-01-27T03:46:15.993Z,5.08
2018-01-27T03:47:26.189Z,5.03
2018-01-27T03:48:36.401Z,5.06
2018-01-27T03:49:46.582Z,5.08
2018-01-27T03:50:56.838Z,5.13
2018-01-27T03:52:07.083Z,5.07
2018-01-27T03:53:17.320Z,5.04
2018-01-27T03:54:27.584Z,5.04
2018-01-27T03:55:37.788Z,5
2018-01-27T03:56:48.970Z,5.04
2018-01-27T03:57:59.225Z,5
2018-01-27T03:59:09.361Z,5.04
2018-01-27T04:00:19.721Z,4.95
2018-01-27T04:01:29.850Z,4.98
2018-01-27T04:02:40.026Z,4.92
2018-01-27T04:03:50.252Z,4.92
2018-01-27T04:05:00.453Z,4.86
2018-01-27T04:06:10.582Z,4.85
2018-01-27T04:07:20.700Z,4.85
2018-01-27T04:08:30.798Z,4.83
2018-01-27T04:09:40.914Z,4.81
2018-01-27T04:10:51.063Z,4.81
2018-01-27T04:12:01.208Z,4.81
2018-01-27T04:13:11.350Z,4.83
2018-01-27T04:14:21.465Z,4.83
2018-01-27T04:15:31.587Z,4.83
2018-01-27T04:16:41.457Z,4.81
2018-01-27T04:17:51.597Z,4.81
2018-01-27T04:19:01.706Z,4.85
2018-01-27T04:20:11.846Z,4.93
2018-01-27T04:21:22.067Z,4.9
2018-01-27T04:22:32.292Z,4.95
2018-01-27T04:23:42.469Z,4.89
2018-01-27T04:24:52.637Z,4.95
2018-01-27T04:26:02.741Z,4.92
2018-01-27T04:27:12.617Z,4.92
2018-01-27T04:28:22.719Z,4.92
2018-01-27T04:29:32.839Z,4.98
2018-01-27T04:30:42.955Z,4.93
2018-01-27T04:31:53.131Z,4.92
2018-01-27T04:33:03.323Z,4.96
2018-01-27T04:34:13.462Z,4.93
2018-01-27T04:35:23.631Z,4.93
2018-01-27T04:36:33.768Z,4.92
2018-01-27T04:37:43.871Z,4.95
2018-01-27T04:38:53.988Z,4.95
2018-01-27T04:40:03.878Z,4.95
2018-01-27T04:41:13.989Z,4.88
2018-01-27T04:42:24.127Z,4.9
2018-01-27T04:43:34.057Z,4.81
2018-01-27T04:44:44.198Z,4.93
2018-01-27T04:45:54.412Z,4.85
2018-01-27T04:47:04.565Z,4.88
2018-01-27T04:48:14.779Z,4.96
2018-01-27T04:49:25.046Z,4.78
2018-01-27T04:50:35.286Z,4.78
2018-01-27T04:51:45.479Z,4.85
2018-01-27T04:52:55.895Z,4.85
2018-01-27T04:54:06.020Z,4.78
2018-01-27T04:55:16.164Z,4.86
2018-01-27T04:56:26.441Z,4.81
2018-01-27T04:57:36.547Z,4.85
2018-01-27T04:58:46.685Z,4.83
2018-01-27T04:59:56.789Z,4.77
2018-01-27T05:01:06.883Z,4.81
2018-01-27T05:02:17.037Z,4.77
2018-01-27T05:03:27.155Z,4.8
2018-01-27T05:04:37.274Z,4.86
2018-01-27T05:05:47.392Z,4.8
2018-01-27T05:06:57.525Z,4.81
2018-01-27T05:08:07.659Z,4.83
2018-01-27T05:09:17.816Z,4.89
2018-01-27T05:10:27.746Z,4.92
2018-01-27T05:11:37.638Z,4.95
2018-01-27T05:12:47.549Z,4.92
2018-01-27T05:13:57.768Z,4.96
2018-01-27T05:15:07.649Z,4.96
2018-01-27T05:16:17.500Z,4.92
2018-01-27T05:17:27.630Z,4.88
2018-01-27T05:18:37.731Z,4.89
2018-01-27T05:19:47.893Z,4.93
2018-01-27T05:20:58.072Z,4.83
2018-01-27T05:22:08.296Z,4.95
2018-01-27T05:23:18.161Z,4.93
2018-01-27T05:24:28.328Z,4.85
2018-01-27T05:25:38.450Z,4.9
2018-01-27T05:26:48.686Z,4.8
2018-01-27T05:27:58.893Z,4.85
2018-01-27T05:29:09.095Z,4.8
2018-01-27T05:30:19.205Z,4.8
2018-01-27T05:31:29.314Z,4.86
2018-01-27T05:32:39.434Z,4.9
2018-01-27T05:33:49.605Z,4.86
2018-01-27T05:34:59.856Z,4.8
2018-01-27T05:36:10.126Z,4.83
2018-01-27T05:37:20.243Z,4.89
2018-01-27T05:38:30.451Z,4.9
2018-01-27T05:39:40.714Z,4.9
2018-01-27T05:40:50.863Z,4.96
2018-01-27T05:42:00.992Z,4.93
2018-01-27T05:43:11.132Z,4.85
2018-01-27T05:44:21.273Z,4.83
2018-01-27T05:45:31.391Z,4.83
2018-01-27T05:46:41.485Z,4.77
2018-01-27T05:47:51.639Z,4.78
2018-01-27T05:49:01.804Z,4.86
2018-01-27T05:50:12.129Z,4.85
2018-01-27T05:51:22.360Z,4.85
2018-01-27T05:52:32.503Z,4.81
2018-01-27T05:53:42.703Z,4.85
2018-01-27T05:54:52.860Z,4.81
2018-01-27T05:56:02.977Z,4.75
2018-01-27T05:57:13.088Z,4.81
2018-01-27T05:58:23.200Z,4.81
2018-01-27T05:59:33.548Z,4.77
2018-01-27T06:00:43.717Z,4.85
2018-01-27T06:01:53.897Z,4.85
2018-01-27T06:03:04.107Z,4.8
2018-01-27T06:04:14.009Z,4.67
2018-01-27T06:05:24.132Z,4.71
2018-01-27T06:06:34.345Z,4.77
2018-01-27T06:07:44.537Z,4.71
2018-01-27T06:08:54.675Z,4.74
2018-01-27T06:10:04.951Z,4.65
2018-01-27T06:11:15.224Z,4.71
2018-01-27T06:12:25.386Z,4.73
2018-01-27T06:13:35.500Z,4.77
2018-01-27T06:14:45.610Z,4.74
2018-01-27T06:15:55.717Z,4.75
2018-01-27T06:17:06.857Z,4.6
2018-01-27T06:18:16.988Z,4.65
2018-01-27T06:19:27.172Z,4.74
2018-01-27T06:20:37.303Z,4.77
2018-01-27T06:21:47.455Z,4.74
2018-01-27T06:22:57.608Z,4.73
2018-01-27T06:24:07.713Z,4.7
2018-01-27T06:25:17.583Z,4.67
2018-01-27T06:26:27.788Z,4.68
2018-01-27T06:27:37.550Z,4.65
2018-01-27T06:28:47.727Z,4.7
2018-01-27T06:29:57.877Z,4.71
2018-01-27T06:31:08.022Z,4.65
2018-01-27T06:32:18.144Z,4.67
2018-01-27T06:33:28.290Z,4.68
2018-01-27T06:34:38.432Z,4.55
2018-01-27T06:35:48.580Z,4.62
2018-01-27T06:36:58.727Z,4.67
2018-01-27T06:38:08.909Z,4.63
2018-01-27T06:39:19.075Z,4.6
2018-01-27T06:40:29.288Z,4.59
2018-01-27T06:41:39.188Z,4.52
2018-01-27T06:42:49.317Z,4.52
2018-01-27T06:43:59.559Z,4.67
2018-01-27T06:45:09.692Z,4.55
2018-01-27T06:46:19.820Z,4.55
2018-01-27T06:47:29.942Z,4.67
2018-01-27T06:48:40.051Z,4.65
2018-01-27T06:49:49.941Z,4.59
2018-01-27T06:51:00.068Z,4.59
2018-01-27T06:52:10.214Z,4.57
2018-01-27T06:53:20.367Z,4.65
2018-01-27T06:54:30.484Z,4.62
2018-01-27T06:55:40.666Z,4.71
2018-01-27T06:56:50.525Z,4.71
2018-01-27T06:58:00.699Z,4.68
2018-01-27T06:59:10.884Z,4.73
2018-01-27T07:00:20.752Z,4.77
2018-01-27T07:01:30.896Z,4.73
2018-01-27T07:02:41.026Z,4.74
2018-01-27T07:03:51.163Z,4.67
2018-01-27T07:05:01.385Z,4.83
2018-01-27T07:06:11.496Z,4.8
2018-01-27T07:07:21.662Z,4.81
2018-01-27T07:08:31.827Z,4.92
2018-01-27T07:09:41.995Z,4.92
2018-01-27T07:10:52.194Z,4.88
2018-01-27T07:12:02.360Z,4.95
2018-01-27T07:13:12.505Z,4.83
2018-01-27T07:14:22.634Z,4.95
2018-01-27T07:15:32.795Z,4.93
2018-01-27T07:16:42.920Z,4.96
2018-01-27T07:17:53.058Z,4.93
2018-01-27T07:19:03.224Z,4.95
2018-01-27T07:20:13.373Z,4.9
2018-01-27T07:21:23.197Z,4.99
2018-01-27T07:22:33.460Z,4.99
2018-01-27T07:23:43.733Z,4.95
2018-01-27T07:24:53.932Z,4.92
2018-01-27T07:26:04.085Z,4.92
2018-01-27T07:27:14.242Z,5.06
2018-01-27T07:28:24.518Z,4.93
2018-01-27T07:29:34.786Z,4.99
2018-01-27T07:30:44.979Z,4.96
2018-01-27T07:31:55.118Z,5.03
2018-01-27T07:33:05.305Z,5
2018-01-27T07:34:15.482Z,5.07
2018-01-27T07:35:25.366Z,5.03
2018-01-27T07:36:35.576Z,5.07
2018-01-27T07:37:45.702Z,5.04
2018-01-27T07:38:55.845Z,5.04
2018-01-27T07:40:05.968Z,5.03
2018-01-27T07:41:15.976Z,5.03
2018-01-27T07:42:26.299Z,5.11
2018-01-27T07:43:36.578Z,5.08
2018-01-27T07:44:46.715Z,5.1
2018-01-27T07:45:56.956Z,5.06
2018-01-27T07:47:07.176Z,5.03
2018-01-27T07:48:17.342Z,5.17
2018-01-27T07:49:27.475Z,5.03
2018-01-27T07:50:37.371Z,5.11
2018-01-27T07:51:47.528Z,5.1
2018-01-27T07:52:57.665Z,5.1
2018-01-27T07:54:07.815Z,5.14
2018-01-27T07:55:17.944Z,5.16
2018-01-27T07:56:28.122Z,5.18
2018-01-27T07:57:38.258Z,5.22
2018-01-27T07:58:48.401Z,5.17
2018-01-27T07:59:58.561Z,5.16
2018-01-27T08:01:08.726Z,5.25
2018-01-27T08:02:18.893Z,5.21
2018-01-27T08:03:28.886Z,5.32
2018-01-27T08:04:39.023Z,5.26
2018-01-27T08:05:49.225Z,5.28
2018-01-27T08:06:59.412Z,5.29
2018-01-27T08:08:09.594Z,5.29
2018-01-27T08:09:19.728Z,5.33
2018-01-27T08:10:29.864Z,5.29
2018-01-27T08:11:39.977Z,5.32
2018-01-27T08:12:50.155Z,5.28
2018-01-27T08:14:00.380Z,5.28
2018-01-27T08:15:10.535Z,5.32
2018-01-27T08:16:20.709Z,5.31
2018-01-27T08:17:30.895Z,5.31
2018-01-27T08:18:41.131Z,5.32
2018-01-27T08:19:51.341Z,5.29
2018-01-27T08:21:01.429Z,5.38
2018-01-27T08:22:11.597Z,5.31
2018-01-27T08:23:21.754Z,5.33
2018-01-27T08:24:31.877Z,5.32
2018-01-27T08:25:42.014Z,5.33
2018-01-27T08:26:52.181Z,5.29
2018-01-27T08:28:02.392Z,5.32
2018-01-27T08:29:12.565Z,5.33
2018-01-27T08:30:22.852Z,5.32
2018-01-27T08:31:33.092Z,5.26
2018-01-27T08:32:43.356Z,5.32
2018-01-27T08:33:53.261Z,5.36
2018-01-27T08:35:03.544Z,5.4
2018-01-27T08:36:13.715Z,5.38
2018-01-27T08:37:23.860Z,5.41
2018-01-27T08:38:34.036Z,5.41
2018-01-27T08:39:44.232Z,5.44
2018-01-27T08:40:54.405Z,5.4
2018-01-27T08:42:04.761Z,5.46
2018-01-27T08:43:14.932Z,5.46
2018-01-27T08:44:25.129Z,5.51
2018-01-27T08:45:35.343Z,5.59
2018-01-27T08:46:45.569Z,5.61
2018-01-27T08:47:55.713Z,5.54
2018-01-27T08:49:05.905Z,5.56
2018-01-27T08:50:16.285Z,5.54
2018-01-27T08:51:26.426Z,5.49
2018-01-27T08:52:36.586Z,5.58
2018-01-27T08:53:46.724Z,5.59
2018-01-27T08:54:57.009Z,5.61
2018-01-27T08:56:07.188Z,5.61
2018-01-27T08:57:17.460Z,5.56
2018-01-27T08:58:27.375Z,5.59
2018-01-27T08:59:37.496Z,5.54
2018-01-27T09:00:47.664Z,5.59
2018-01-27T09:01:57.808Z,5.5
2018-01-27T09:03:07.943Z,5.51
2018-01-27T09:04:18.059Z,5.47
2018-01-27T09:05:28.336Z,5.54
2018-01-27T09:06:38.535Z,5.49
2018-01-27T09:07:48.692Z,5.44
2018-01-27T09:08:58.876Z,5.44
2018-01-27T09:10:09.005Z,5.46
2018-01-27T09:11:19.224Z,5.49
2018-01-27T09:12:29.365Z,5.51
2018-01-27T09:13:39.243Z,5.47
2018-01-27T09:14:49.405Z,5.54
2018-01-27T09:15:59.572Z,5.56
2018-01-27T09:17:09.784Z,5.59
2018-01-27T09:18:19.707Z,5.54
2018-01-27T09:19:29.902Z,5.53
2018-01-27T09:20:40.068Z,5.59
2018-01-27T09:21:50.245Z,5.58
2018-01-27T09:23:00.477Z,5.58
2018-01-27T09:24:10.648Z,5.59
2018-01-27T09:25:20.939Z,5.58
2018-01-27T09:26:30.833Z,5.62
2018-01-27T09:27:41.010Z,5.71
2018-01-27T09:28:51.247Z,5.68
2018-01-27T09:30:01.475Z,5.58
2018-01-27T09:31:11.614Z,5.51
2018-01-27T09:32:21.512Z,5.53
2018-01-27T09:33:31.676Z,5.64
2018-01-27T09:34:41.841Z,5.67
2018-01-27T09:35:51.990Z,5.68
2018-01-27T09:37:01.885Z,5.65
2018-01-27T09:38:12.053Z,5.58
2018-01-27T09:39:22.196Z,5.71
2018-01-27T09:40:32.358Z,5.67
2018-01-27T09:41:42.527Z,5.71
2018-01-27T09:42:52.665Z,5.72
2018-01-27T09:44:02.937Z,5.68
2018-01-27T09:45:13.082Z,5.79
2018-01-27T09:46:23.370Z,5.77
2018-01-27T09:47:33.598Z,5.84
2018-01-27T09:48:43.856Z,6.02
2018-01-27T09:49:54.048Z,6.24
2018-01-27T09:51:04.213Z,6.64
2018-01-27T09:52:14.136Z,7.03
2018-01-27T09:53:24.051Z,7.49
2018-01-27T09:54:34.185Z,7.95
2018-01-27T09:55:44.332Z,8.43
2018-01-27T09:56:54.235Z,8.5
2018-01-27T09:58:04.414Z,8.61
2018-01-27T09:59:14.130Z,8.74
2018-01-27T10:00:24.319Z,9.07
2018-01-27T10:01:34.474Z,9.41
2018-01-27T10:02:44.675Z,9.88
2018-01-27T10:03:54.858Z,10.22
2018-01-27T10:05:05.040Z,10.4
2018-01-27T10:06:15.209Z,10.73
2018-01-27T10:07:25.541Z,10.75
2018-01-27T10:08:36.659Z,10.69
2018-01-27T10:09:46.869Z,10.75
2018-01-27T10:10:57.047Z,11.09
2018-01-27T10:12:07.323Z,11.33
2018-01-27T10:13:17.501Z,11.46
2018-01-27T10:14:27.722Z,11.71
2018-01-27T10:15:37.894Z,11.98
2018-01-27T10:16:48.056Z,12.16
2018-01-27T10:17:58.230Z,12.39
2018-01-27T10:19:08.425Z,12.57
2018-01-27T10:20:18.631Z,12.62
2018-01-27T10:21:28.843Z,12.81
2018-01-27T10:22:39.035Z,12.9
2018-01-27T10:23:49.177Z,13.11
2018-01-27T10:24:59.328Z,13.26
2018-01-27T10:26:09.558Z,13.56
2018-01-27T10:27:19.786Z,13.69
2018-01-27T10:28:29.957Z,13.88
2018-01-27T10:29:40.173Z,14.16
2018-01-27T10:30:50.408Z,14.28
2018-01-27T10:32:00.652Z,14.52
2018-01-27T10:33:10.873Z,14.7
2018-01-27T10:34:21.472Z,14.85
2018-01-27T10:35:31.637Z,15.02
2018-01-27T10:36:41.534Z,15.17
2018-01-27T10:37:51.753Z,15.35
2018-01-27T10:39:01.915Z,15.29
2018-01-27T10:40:11.912Z,15.18
2018-01-27T10:41:22.066Z,15.3
2018-01-27T10:42:32.390Z,15.2
2018-01-27T10:43:42.553Z,15.27
2018-01-27T10:44:52.773Z,15.27
2018-01-27T10:46:02.924Z,15.25
2018-01-27T10:47:13.076Z,15.25
2018-01-27T10:48:23.057Z,15.27
2018-01-27T10:49:33.465Z,15.23
2018-01-27T10:50:43.737Z,15.21
2018-01-27T10:51:53.942Z,15.27
2018-01-27T10:53:04.126Z,15.32
2018-01-27T10:54:14.272Z,15.45
2018-01-27T10:55:24.429Z,15.55
2018-01-27T10:56:34.695Z,15.68
2018-01-27T10:57:44.864Z,15.79
2018-01-27T10:58:55.047Z,15.87
2018-01-27T11:00:05.426Z,15.87
2018-01-27T11:01:15.616Z,15.66
2018-01-27T11:02:25.425Z,15.58
2018-01-27T11:03:35.597Z,15.53
2018-01-27T11:04:45.821Z,15.46
2018-01-27T11:05:55.991Z,15.61
2018-01-27T11:07:05.889Z,15.54
2018-01-27T11:08:16.040Z,15.42
2018-01-27T11:09:26.223Z,15.42
2018-01-27T11:10:36.404Z,15.48
2018-01-27T11:11:46.571Z,15.48
2018-01-27T11:12:56.743Z,15.7
2018-01-27T11:14:06.688Z,15.63
2018-01-27T11:15:16.852Z,15.64
2018-01-27T11:16:27.047Z,15.66
2018-01-27T11:17:37.295Z,15.7
2018-01-27T11:18:47.496Z,15.61
2018-01-27T11:19:57.675Z,15.68
2018-01-27T11:21:07.923Z,15.6
2018-01-27T11:22:18.227Z,15.45
2018-01-27T11:23:28.475Z,15.3
2018-01-27T11:24:38.706Z,15.25
2018-01-27T11:25:48.922Z,15.24
2018-01-27T11:26:59.072Z,15.21
2018-01-27T11:28:09.304Z,15.05
2018-01-27T11:29:19.554Z,14.95
2018-01-27T11:30:29.806Z,14.81
2018-01-27T11:31:39.981Z,14.69
2018-01-27T11:32:50.287Z,14.69
2018-01-27T11:34:00.216Z,14.54
2018-01-27T11:35:10.370Z,14.18
2018-01-27T11:36:20.525Z,14.04
2018-01-27T11:37:30.688Z,14.02
2018-01-27T11:38:40.850Z,14.11
2018-01-27T11:39:50.760Z,14.19
2018-01-27T11:41:01.069Z,14.18
2018-01-27T11:42:11.257Z,14.25
2018-01-27T11:43:22.324Z,14.45
2018-01-27T11:44:32.530Z,14.69
2018-01-27T11:45:42.773Z,14.65
2018-01-27T11:46:52.984Z,14.75
2018-01-27T11:48:03.167Z,14.87
2018-01-27T11:49:13.364Z,14.98
2018-01-27T11:50:23.606Z,14.95
2018-01-27T11:51:33.852Z,14.84
2018-01-27T11:52:44.036Z,14.84
2018-01-27T11:53:54.325Z,14.62
2018-01-27T11:55:04.514Z,14.18
2018-01-27T11:56:14.718Z,13.81
2018-01-27T11:57:24.932Z,13.41
2018-01-27T11:58:35.143Z,13.26
2018-01-27T11:59:45.333Z,13.13
2018-01-27T12:00:55.536Z,13.12
2018-01-27T12:02:05.829Z,13.22
2018-01-27T12:03:16.039Z,13.3
2018-01-27T12:04:26.268Z,13.41
2018-01-27T12:05:36.524Z,13.48
2018-01-27T12:06:46.672Z,13.52
2018-01-27T12:07:56.879Z,13.33
2018-01-27T12:09:07.120Z,13.21
2018-01-27T12:10:17.314Z,13.22
2018-01-27T12:11:27.554Z,13.19
2018-01-27T12:12:37.781Z,13.03
2018-01-27T12:13:47.952Z,12.96
2018-01-27T12:14:58.249Z,12.7
2018-01-27T12:16:08.437Z,12.52
2018-01-27T12:17:18.829Z,12.39
2018-01-27T12:18:29.006Z,12.08
2018-01-27T12:19:39.177Z,11.71
2018-01-27T12:20:49.352Z,11.39
2018-01-27T12:21:59.520Z,11.06
2018-01-27T12:23:09.774Z,10.76
2018-01-27T12:24:19.966Z,10.65
2018-01-27T12:25:30.276Z,10.51
2018-01-27T12:26:40.524Z,10.39
2018-01-27T12:27:50.708Z,10.33
2018-01-27T12:29:00.549Z,10.07
2018-01-27T12:30:10.718Z,9.84
2018-01-27T12:31:20.917Z,9.6
2018-01-27T12:32:31.100Z,9.38
2018-01-27T12:33:41.278Z,9.35
2018-01-27T12:34:51.587Z,9.37
2018-01-27T12:36:01.754Z,9.33
2018-01-27T12:37:11.945Z,9.38
2018-01-27T12:38:22.171Z,9.44
2018-01-27T12:39:32.368Z,9.37
2018-01-27T12:40:42.544Z,9.35
2018-01-27T12:41:52.473Z,9.3
2018-01-27T12:43:02.599Z,9.33
2018-01-27T12:44:12.916Z,9.26
2018-01-27T12:45:23.057Z,9.3
2018-01-27T12:46:32.950Z,9.3
2018-01-27T12:47:43.133Z,9.22
2018-01-27T12:48:53.303Z,9.17
2018-01-27T12:50:03.526Z,9.15
2018-01-27T12:51:13.710Z,9.01
2018-01-27T12:52:23.863Z,8.93
2018-01-27T12:53:34.135Z,8.82
2018-01-27T12:54:44.296Z,8.71
2018-01-27T12:55:54.489Z,8.63
2018-01-27T12:57:04.679Z,8.66
2018-01-27T12:58:14.852Z,8.58
2018-01-27T12:59:25.048Z,8.55
2018-01-27T13:00:35.252Z,8.5
2018-01-27T13:01:45.432Z,8.49
2018-01-27T13:02:55.710Z,8.53
2018-01-27T13:04:06.126Z,8.58
2018-01-27T13:05:16.293Z,8.6
2018-01-27T13:06:26.476Z,8.75
2018-01-27T13:07:36.695Z,8.74
2018-01-27T13:08:46.862Z,8.9
2018-01-27T13:09:57.027Z,8.79
2018-01-27T13:11:07.195Z,8.77
2018-01-27T13:12:17.357Z,8.71
2018-01-27T13:13:27.559Z,8.84
2018-01-27T13:14:37.756Z,8.71
2018-01-27T13:15:47.809Z,8.71
2018-01-27T13:16:57.982Z,8.6
2018-01-27T13:18:08.212Z,8.64
2018-01-27T13:19:18.121Z,8.61
2018-01-27T13:20:28.566Z,8.52
2018-01-27T13:21:38.874Z,8.57
2018-01-27T13:22:49.164Z,8.57
2018-01-27T13:23:59.364Z,8.55
2018-01-27T13:25:09.743Z,8.43
2018-01-27T13:26:19.961Z,8.37
2018-01-27T13:27:30.201Z,8.43
2018-01-27T13:28:40.337Z,8.31
2018-01-27T13:29:50.568Z,8.32
2018-01-27T13:31:00.741Z,8.37
2018-01-27T13:32:10.945Z,8.3
2018-01-27T13:33:21.223Z,8.27
2018-01-27T13:34:31.401Z,8.31
2018-01-27T13:35:41.583Z,8.28
2018-01-27T13:36:51.850Z,8.16
2018-01-27T13:38:02.037Z,8.2
2018-01-27T13:39:12.240Z,8.15
2018-01-27T13:40:22.499Z,8.05
2018-01-27T13:41:32.695Z,8.05
2018-01-27T13:42:42.927Z,7.97
2018-01-27T13:43:53.251Z,7.98
2018-01-27T13:45:03.410Z,7.88
2018-01-27T13:46:13.318Z,7.77
2018-01-27T13:47:23.481Z,7.8
2018-01-27T13:48:33.445Z,7.77
2018-01-27T13:49:43.721Z,7.64
2018-01-27T13:50:53.972Z,7.66
2018-01-27T13:52:04.168Z,7.66
2018-01-27T13:53:15.282Z,7.55
2018-01-27T13:54:26.561Z,7.43
2018-01-27T13:55:36.724Z,7.44
2018-01-27T13:56:47.118Z,7.4
2018-01-27T13:57:57.278Z,7.24
2018-01-27T13:59:07.570Z,7.28
2018-01-27T14:00:17.761Z,7.2
2018-01-27T14:01:27.904Z,7.22
2018-01-27T14:02:37.816Z,7.21
2018-01-27T14:03:47.952Z,7.28
2018-01-27T14:04:58.206Z,7.33
2018-01-27T14:06:08.480Z,7.26
2018-01-27T14:07:18.658Z,7.28
2018-01-27T14:08:28.642Z,7.24
2018-01-27T14:09:39.067Z,7.26
2018-01-27T14:10:49.255Z,7.21
2018-01-27T14:11:59.554Z,7.28
2018-01-27T14:13:09.764Z,7.33
2018-01-27T14:14:19.991Z,7.36
2018-01-27T14:15:30.179Z,7.26
2018-01-27T14:16:40.379Z,7.31
2018-01-27T14:17:50.588Z,7.24
2018-01-27T14:19:00.807Z,7.24
2018-01-27T14:20:11.007Z,7.22
2018-01-27T14:21:21.205Z,7.29
2018-01-27T14:22:31.387Z,7.28
2018-01-27T14:23:41.628Z,7.17
2018-01-27T14:24:51.601Z,7.28
2018-01-27T14:26:01.804Z,7.29
2018-01-27T14:27:11.937Z,7.28
2018-01-27T14:28:22.099Z,7.21
2018-01-27T14:29:32.308Z,7.24
2018-01-27T14:30:42.581Z,7.31
2018-01-27T14:31:52.767Z,7.22
2018-01-27T14:33:03.008Z,7.22
2018-01-27T14:34:13.203Z,7.21
2018-01-27T14:35:23.361Z,7.15
2018-01-27T14:36:33.548Z,7.18
2018-01-27T14:37:43.846Z,7.1
2018-01-27T14:38:54.026Z,7.14
2018-01-27T14:40:04.244Z,6.99
2018-01-27T14:41:14.411Z,7.02
2018-01-27T14:42:24.660Z,6.92
2018-01-27T14:43:34.845Z,6.96
2018-01-27T14:44:45.048Z,6.9
2018-01-27T14:45:55.237Z,6.9
2018-01-27T14:47:05.440Z,6.93
2018-01-27T14:48:15.837Z,6.95
2018-01-27T14:49:26.003Z,6.95
2018-01-27T14:50:36.297Z,6.97
2018-01-27T14:51:46.502Z,6.95
2018-01-27T14:52:56.740Z,6.95
2018-01-27T14:54:06.564Z,6.92
2018-01-27T14:55:16.752Z,7
2018-01-27T14:56:26.901Z,6.97
2018-01-27T14:57:37.249Z,7
2018-01-27T14:58:47.486Z,7.02
2018-01-27T14:59:57.613Z,7
2018-01-27T15:01:07.820Z,7
2018-01-27T15:02:17.999Z,7.08
2018-01-27T15:03:28.212Z,7.06
2018-01-27T15:04:38.433Z,6.97
2018-01-27T15:05:48.616Z,6.99
2018-01-27T15:06:58.849Z,6.97
2018-01-27T15:08:09.068Z,6.95
2018-01-27T15:09:19.356Z,7
2018-01-27T15:10:29.600Z,7
2018-01-27T15:11:39.828Z,7.08
2018-01-27T15:12:50.044Z,7.03
2018-01-27T15:14:00.358Z,6.97
2018-01-27T15:15:10.160Z,6.99
2018-01-27T15:16:20.349Z,6.89
2018-01-27T15:17:30.575Z,6.93
2018-01-27T15:18:40.745Z,6.93
2018-01-27T15:19:50.884Z,6.79
2018-01-27T15:21:01.067Z,6.9
2018-01-27T15:22:11.211Z,6.75
2018-01-27T15:23:21.500Z,6.79
2018-01-27T15:24:31.772Z,6.75
2018-01-27T15:25:41.994Z,6.74
2018-01-27T15:26:52.200Z,6.71
2018-01-27T15:28:02.370Z,6.6
2018-01-27T15:29:12.200Z,6.59
2018-01-27T15:30:22.385Z,6.57
2018-01-27T15:31:32.577Z,6.53
2018-01-27T15:32:42.825Z,6.63
2018-01-27T15:33:53.027Z,6.56